createdAt,value
2023-02-27T17:09:10.413Z,56.00
2023-02-27T17:11:38.618Z,56.10
2023-02-27T17:14:08.643Z,56.40
2023-02-27T17:16:36.532Z,56.60
2023-02-27T17:19:07.643Z,56.60
2023-02-27T17:21:35.673Z,56.80
2023-02-27T17:24:04.682Z,56.80
2023-02-27T17:26:34.333Z,57.10
2023-02-27T17:29:02.682Z,57.20
2023-02-27T17:31:31.145Z,57.40
2023-02-27T17:33:59.004Z,57.60
2023-02-27T17:36:27.197Z,57.40
2023-02-27T17:38:56.774Z,57.60
2023-02-27T17:41:24.815Z,57.60
2023-02-27T17:43:55.959Z,57.70
2023-02-27T17:46:26.155Z,57.70
2023-02-27T17:48:56.080Z,57.70
2023-02-27T17:51:23.962Z,57.60
2023-02-27T17:53:51.802Z,58.00
2023-02-27T17:56:19.706Z,57.80
2023-02-27T17:58:47.679Z,58.20
2023-02-27T18:01:20.315Z,58.20
2023-02-27T18:03:49.331Z,58.50
2023-02-27T18:06:17.553Z,58.40
2023-02-27T18:08:48.683Z,58.50
2023-02-27T18:11:18.338Z,58.60
2023-02-27T18:13:50.435Z,57.60
2023-02-27T18:16:21.930Z,58.20
2023-02-27T18:18:50.192Z,58.80
2023-02-27T18:21:21.252Z,58.70
2023-02-27T18:23:49.592Z,59.90
2023-02-27T18:26:29.360Z,59.40
2023-02-27T18:29:00.123Z,59.70
2023-02-27T18:31:31.801Z,60.00
2023-02-27T18:33:59.949Z,59.80
2023-02-27T18:36:28.437Z,60.10
2023-02-27T18:38:56.629Z,60.10
2023-02-27T18:41:24.662Z,60.00
2023-02-27T18:43:52.878Z,60.30
2023-02-27T18:46:21.117Z,60.40
2023-02-27T18:48:50.363Z,60.90
2023-02-27T18:51:19.300Z,60.90
2023-02-27T18:53:50.072Z,61.30
2023-02-27T18:56:19.541Z,62.30
2023-02-27T18:58:47.738Z,61.80
2023-02-27T19:01:23.956Z,61.70
2023-02-27T19:03:56.228Z,61.90
2023-02-27T19:06:24.164Z,62.00
2023-02-27T19:08:52.382Z,62.00
2023-02-27T19:11:24.304Z,62.00
2023-02-27T19:13:52.974Z,62.00
2023-02-27T19:16:21.212Z,62.20
2023-02-27T19:18:49.189Z,62.40
2023-02-27T19:21:18.523Z,62.70
2023-02-27T19:23:47.042Z,63.70
2023-02-27T19:26:15.233Z,62.80
2023-02-27T19:28:43.075Z,62.90
2023-02-27T19:31:12.792Z,63.20
2023-02-27T19:33:41.293Z,63.30
2023-02-27T19:36:11.801Z,63.40
2023-02-27T19:38:41.163Z,63.50
2023-02-27T19:41:12.332Z,63.40
2023-02-27T19:43:41.584Z,63.60
2023-02-27T19:46:11.445Z,63.80
2023-02-27T19:48:39.662Z,64.10
2023-02-27T19:51:09.536Z,64.20
2023-02-27T19:53:38.771Z,64.60
2023-02-27T19:56:11.433Z,64.70
2023-02-27T19:58:42.323Z,65.00
2023-02-27T20:01:10.853Z,65.10
2023-02-27T20:03:43.151Z,65.40
2023-02-27T20:06:16.935Z,65.50
2023-02-27T20:08:44.859Z,65.50
2023-02-27T20:11:17.106Z,65.50
2023-02-27T20:13:47.997Z,65.70
2023-02-27T20:16:22.209Z,65.90
2023-02-27T20:18:51.326Z,66.10
2023-02-27T20:21:22.313Z,66.30
2023-02-27T20:23:51.647Z,66.30
2023-02-27T20:26:24.435Z,66.10
2023-02-27T20:28:53.851Z,66.00
2023-02-27T20:31:24.493Z,66.10
2023-02-27T20:33:53.036Z,67.00
2023-02-27T20:36:21.366Z,66.20
2023-02-27T20:38:49.284Z,66.30
2023-02-27T20:41:19.209Z,65.80
2023-02-27T20:43:49.330Z,66.50
2023-02-27T20:46:20.421Z,66.50
2023-02-27T20:48:48.449Z,66.50
2023-02-27T20:51:19.820Z,66.50
2023-02-27T20:53:50.468Z,66.80
2023-02-27T20:56:20.867Z,66.80
2023-02-27T20:58:50.681Z,66.90
2023-02-27T21:01:19.411Z,67.00
2023-02-27T21:03:50.613Z,67.00
2023-02-27T21:06:19.611Z,67.10
2023-02-27T21:08:49.518Z,67.20
2023-02-27T21:11:20.398Z,67.50
2023-02-27T21:13:50.194Z,67.60
2023-02-27T21:16:19.951Z,67.60
2023-02-27T21:18:51.451Z,67.80
2023-02-27T21:21:22.784Z,67.00
2023-02-27T21:23:51.464Z,68.10
2023-02-27T21:26:21.547Z,68.10
2023-02-27T21:28:52.525Z,68.20
2023-02-27T21:31:23.440Z,68.30
2023-02-27T21:33:52.609Z,68.60
2023-02-27T21:36:26.421Z,68.50
2023-02-27T21:38:57.954Z,69.30
2023-02-27T21:41:26.071Z,70.00
2023-02-27T21:43:57.836Z,69.00
2023-02-27T21:46:27.387Z,69.30
2023-02-27T21:48:55.417Z,69.20
2023-02-27T21:51:38.891Z,69.40
2023-02-27T21:54:09.058Z,69.80
2023-02-27T21:56:36.951Z,69.70
2023-02-27T21:59:08.517Z,69.60
2023-02-27T22:01:38.675Z,69.40
2023-02-27T22:04:07.302Z,69.90
2023-02-27T22:06:36.132Z,70.00
2023-02-27T22:09:07.978Z,70.10
2023-02-27T22:11:36.864Z,70.00
2023-02-27T22:14:06.926Z,70.10
2023-02-27T22:16:35.185Z,70.10
2023-02-27T22:19:07.929Z,70.30
2023-02-27T22:21:37.058Z,70.40
2023-02-27T22:24:06.449Z,70.30
2023-02-27T22:26:34.624Z,71.60
2023-02-27T22:29:03.059Z,70.10
2023-02-27T22:31:33.491Z,70.20
2023-02-27T22:34:06.962Z,70.30
2023-02-27T22:36:36.778Z,70.40
2023-02-27T22:39:06.632Z,70.40
2023-02-27T22:41:39.468Z,70.00
2023-02-27T22:44:08.481Z,70.20
2023-02-27T22:46:38.140Z,70.00
2023-02-27T22:49:09.378Z,72.00
2023-02-27T22:51:38.883Z,70.40
2023-02-27T22:54:10.371Z,70.10
2023-02-27T22:56:38.324Z,70.20
2023-02-27T22:59:07.086Z,70.20
2023-02-27T23:01:38.428Z,70.50
2023-02-27T23:04:08.595Z,70.70
2023-02-27T23:06:40.263Z,70.60
2023-02-27T23:09:09.981Z,70.80
2023-02-27T23:11:37.859Z,72.60
2023-02-27T23:14:09.130Z,71.00
2023-02-27T23:16:37.346Z,70.80
2023-02-27T23:19:08.670Z,71.10
2023-02-27T23:21:37.165Z,71.20
2023-02-27T23:24:10.443Z,71.20
2023-02-27T23:26:38.503Z,71.50
2023-02-27T23:29:07.278Z,71.50
2023-02-27T23:31:36.325Z,71.50
2023-02-27T23:34:05.873Z,71.70
2023-02-27T23:36:33.759Z,71.80
2023-02-27T23:39:02.777Z,71.70
2023-02-27T23:41:33.420Z,71.80
2023-02-27T23:44:01.540Z,72.00
2023-02-27T23:46:30.405Z,71.90
2023-02-27T23:48:59.082Z,72.10
2023-02-27T23:51:29.099Z,72.60
2023-02-27T23:53:58.117Z,72.50
2023-02-27T23:56:28.132Z,72.30
2023-02-27T23:58:59.361Z,72.40
